sensor_id;sensor_type;location;lat;lon;timestamp;temperature;humidity
4518;DHT22;2271;49.464;11.070;2024-01-25T00:01:10;9.40;99.90
4518;DHT22;2271;49.464;11.070;2024-01-25T00:03:36;9.40;99.90
4518;DHT22;2271;49.464;11.070;2024-01-25T00:06:01;9.40;99.90
4518;DHT22;2271;49.464;11.070;2024-01-25T00:08:27;9.40;99.90
4518;DHT22;2271;49.464;11.070;2024-01-25T00:10:53;9.40;99.90
4518;DHT22;2271;49.464;11.070;2024-01-25T00:13:19;9.40;99.90
4518;DHT22;2271;49.464;11.070;2024-01-25T00:15:44;9.40;99.90
4518;DHT22;2271;49.464;11.070;2024-01-25T00:18:10;9.40;99.90
4518;DHT22;2271;49.464;11.070;2024-01-25T00:20:36;9.40;99.90
4518;DHT22;2271;49.464;11.070;2024-01-25T00:23:01;9.40;99.90
4518;DHT22;2271;49.464;11.070;2024-01-25T00:25:27;9.40;99.90
4518;DHT22;2271;49.464;11.070;2024-01-25T00:27:53;9.40;99.90
4518;DHT22;2271;49.464;11.070;2024-01-25T00:30:18;9.40;99.90
4518;DHT22;2271;49.464;11.070;2024-01-25T00:32:44;9.40;99.90
4518;DHT22;2271;49.464;11.070;2024-01-25T00:35:10;9.40;99.90
4518;DHT22;2271;49.464;11.070;2024-01-25T00:37:40;9.40;99.90
4518;DHT22;2271;49.464;11.070;2024-01-25T00:40:06;9.40;99.90
4518;DHT22;2271;49.464;11.070;2024-01-25T00:42:43;9.30;99.90
4518;DHT22;2271;49.464;11.070;2024-01-25T00:45:10;9.30;99.90
4518;DHT22;2271;49.464;11.070;2024-01-25T00:47:36;9.30;99.90
4518;DHT22;2271;49.464;11.070;2024-01-25T00:50:02;9.30;99.90
4518;DHT22;2271;49.464;11.070;2024-01-25T00:52:28;9.30;99.90
4518;DHT22;2271;49.464;11.070;2024-01-25T00:54:54;9.20;99.90
4518;DHT22;2271;49.464;11.070;2024-01-25T00:57:20;9.20;99.90
4518;DHT22;2271;49.464;11.070;2024-01-25T00:59:46;9.20;99.90
4518;DHT22;2271;49.464;11.070;2024-01-25T01:02:13;9.20;99.90
4518;DHT22;2271;49.464;11.070;2024-01-25T01:04:40;9.20;99.90
4518;DHT22;2271;49.464;11.070;2024-01-25T01:07:06;9.10;99.90
4518;DHT22;2271;49.464;11.070;2024-01-25T01:09:32;9.20;99.90
4518;DHT22;2271;49.464;11.070;2024-01-25T01:11:58;9.20;99.90
4518;DHT22;2271;49.464;11.070;2024-01-25T01:14:24;9.20;99.90
4518;DHT22;2271;49.464;11.070;2024-01-25T01:16:50;9.20;99.90
4518;DHT22;2271;49.464;11.070;2024-01-25T01:19:16;9.20;99.90
4518;DHT22;2271;49.464;11.070;2024-01-25T01:21:42;9.20;99.90
4518;DHT22;2271;49.464;11.070;2024-01-25T01:24:12;9.20;99.90
4518;DHT22;2271;49.464;11.070;2024-01-25T01:26:38;9.20;99.90
4518;DHT22;2271;49.464;11.070;2024-01-25T01:29:04;9.20;99.90
4518;DHT22;2271;49.464;11.070;2024-01-25T01:31:30;9.20;99.90
4518;DHT22;2271;49.464;11.070;2024-01-25T01:33:56;9.20;99.90
4518;DHT22;2271;49.464;11.070;2024-01-25T01:36:23;9.20;99.90
4518;DHT22;2271;49.464;11.070;2024-01-25T01:38:49;9.20;99.90
4518;DHT22;2271;49.464;11.070;2024-01-25T01:41:15;9.10;99.90
4518;DHT22;2271;49.464;11.070;2024-01-25T01:43:41;9.20;99.90
4518;DHT22;2271;49.464;11.070;2024-01-25T01:46:34;9.20;99.90
4518;DHT22;2271;49.464;11.070;2024-01-25T01:49:13;9.20;99.90
4518;DHT22;2271;49.464;11.070;2024-01-25T01:51:40;9.20;99.90
4518;DHT22;2271;49.464;11.070;2024-01-25T01:54:07;9.20;99.90
4518;DHT22;2271;49.464;11.070;2024-01-25T01:56:33;9.20;99.90
4518;DHT22;2271;49.464;11.070;2024-01-25T01:59:09;9.20;99.90
4518;DHT22;2271;49.464;11.070;2024-01-25T02:01:38;9.20;99.90
4518;DHT22;2271;49.464;11.070;2024-01-25T02:04:04;9.20;99.90
4518;DHT22;2271;49.464;11.070;2024-01-25T02:06:30;9.10;99.90
4518;DHT22;2271;49.464;11.070;2024-01-25T02:08:56;9.10;99.90
4518;DHT22;2271;49.464;11.070;2024-01-25T02:11:24;9.10;99.90
4518;DHT22;2271;49.464;11.070;2024-01-25T02:13:50;9.00;99.90
4518;DHT22;2271;49.464;11.070;2024-01-25T02:16:16;9.00;99.90
4518;DHT22;2271;49.464;11.070;2024-01-25T02:18:43;9.00;99.90
4518;DHT22;2271;49.464;11.070;2024-01-25T02:21:08;9.00;99.90
4518;DHT22;2271;49.464;11.070;2024-01-25T02:23:34;9.00;99.90
4518;DHT22;2271;49.464;11.070;2024-01-25T02:26:00;9.00;99.90
4518;DHT22;2271;49.464;11.070;2024-01-25T02:28:25;9.00;99.90
4518;DHT22;2271;49.464;11.070;2024-01-25T02:30:51;9.00;99.90
4518;DHT22;2271;49.464;11.070;2024-01-25T02:33:17;9.00;99.90
4518;DHT22;2271;49.464;11.070;2024-01-25T02:35:42;9.00;99.90
4518;DHT22;2271;49.464;11.070;2024-01-25T02:38:08;9.00;99.90
4518;DHT22;2271;49.464;11.070;2024-01-25T02:40:34;9.00;99.90
4518;DHT22;2271;49.464;11.070;2024-01-25T02:42:59;9.10;99.90
4518;DHT22;2271;49.464;11.070;2024-01-25T02:45:25;9.00;99.90
4518;DHT22;2271;49.464;11.070;2024-01-25T02:47:50;9.00;99.90
4518;DHT22;2271;49.464;11.070;2024-01-25T02:50:16;9.00;99.90
4518;DHT22;2271;49.464;11.070;2024-01-25T02:52:42;9.00;99.90
4518;DHT22;2271;49.464;11.070;2024-01-25T02:55:08;9.00;99.90
4518;DHT22;2271;49.464;11.070;2024-01-25T02:57:34;9.00;99.90
4518;DHT22;2271;49.464;11.070;2024-01-25T03:00:00;9.00;99.90
4518;DHT22;2271;49.464;11.070;2024-01-25T03:02:25;9.00;99.90
4518;DHT22;2271;49.464;11.070;2024-01-25T03:04:51;9.00;99.90
4518;DHT22;2271;49.464;11.070;2024-01-25T03:07:17;9.10;99.90
4518;DHT22;2271;49.464;11.070;2024-01-25T03:09:43;9.00;99.90
4518;DHT22;2271;49.464;11.070;2024-01-25T03:12:08;9.00;99.90
4518;DHT22;2271;49.464;11.070;2024-01-25T03:14:34;9.00;99.90
4518;DHT22;2271;49.464;11.070;2024-01-25T03:16:59;9.00;99.90
4518;DHT22;2271;49.464;11.070;2024-01-25T03:19:26;9.00;99.90
4518;DHT22;2271;49.464;11.070;2024-01-25T03:21:52;9.00;99.90
4518;DHT22;2271;49.464;11.070;2024-01-25T03:24:18;9.00;99.90
4518;DHT22;2271;49.464;11.070;2024-01-25T03:26:43;9.00;99.90
4518;DHT22;2271;49.464;11.070;2024-01-25T03:29:09;9.00;99.90
4518;DHT22;2271;49.464;11.070;2024-01-25T03:31:35;9.00;99.90
4518;DHT22;2271;49.464;11.070;2024-01-25T03:34:02;9.00;99.90
4518;DHT22;2271;49.464;11.070;2024-01-25T03:36:27;9.00;99.90
4518;DHT22;2271;49.464;11.070;2024-01-25T03:38:53;9.00;99.90
4518;DHT22;2271;49.464;11.070;2024-01-25T03:41:19;9.00;99.90
4518;DHT22;2271;49.464;11.070;2024-01-25T03:43:45;9.00;99.90
4518;DHT22;2271;49.464;11.070;2024-01-25T03:46:13;9.00;99.90
4518;DHT22;2271;49.464;11.070;2024-01-25T03:48:39;9.00;99.90
4518;DHT22;2271;49.464;11.070;2024-01-25T03:51:05;9.00;99.90
4518;DHT22;2271;49.464;11.070;2024-01-25T03:53:31;9.00;99.90
4518;DHT22;2271;49.464;11.070;2024-01-25T03:55:56;9.00;99.90
4518;DHT22;2271;49.464;11.070;2024-01-25T03:58:22;9.00;99.90
4518;DHT22;2271;49.464;11.070;2024-01-25T04:00:48;9.00;99.90
4518;DHT22;2271;49.464;11.070;2024-01-25T04:03:13;9.00;99.90
4518;DHT22;2271;49.464;11.070;2024-01-25T04:05:39;9.00;99.90
4518;DHT22;2271;49.464;11.070;2024-01-25T04:08:05;9.00;99.90
4518;DHT22;2271;49.464;11.070;2024-01-25T04:10:32;9.00;99.90
4518;DHT22;2271;49.464;11.070;2024-01-25T04:12:58;8.90;99.90
4518;DHT22;2271;49.464;11.070;2024-01-25T04:15:26;8.90;99.90
4518;DHT22;2271;49.464;11.070;2024-01-25T04:17:52;8.90;99.90
4518;DHT22;2271;49.464;11.070;2024-01-25T04:20:19;9.00;99.90
4518;DHT22;2271;49.464;11.070;2024-01-25T04:22:45;9.00;99.90
4518;DHT22;2271;49.464;11.070;2024-01-25T04:25:11;8.90;99.90
4518;DHT22;2271;49.464;11.070;2024-01-25T04:27:40;9.00;99.90
4518;DHT22;2271;49.464;11.070;2024-01-25T04:30:06;8.90;99.90
4518;DHT22;2271;49.464;11.070;2024-01-25T04:32:32;8.90;99.90
4518;DHT22;2271;49.464;11.070;2024-01-25T04:34:58;8.90;99.90
4518;DHT22;2271;49.464;11.070;2024-01-25T04:37:24;8.90;99.90
4518;DHT22;2271;49.464;11.070;2024-01-25T04:39:50;8.90;99.90
4518;DHT22;2271;49.464;11.070;2024-01-25T04:42:15;8.90;99.90
4518;DHT22;2271;49.464;11.070;2024-01-25T04:44:41;8.90;99.90
4518;DHT22;2271;49.464;11.070;2024-01-25T04:47:07;8.90;99.90
4518;DHT22;2271;49.464;11.070;2024-01-25T04:49:32;8.90;99.90
4518;DHT22;2271;49.464;11.070;2024-01-25T04:51:58;8.90;99.90
4518;DHT22;2271;49.464;11.070;2024-01-25T04:54:24;8.90;99.90
4518;DHT22;2271;49.464;11.070;2024-01-25T04:56:49;8.90;99.90
4518;DHT22;2271;49.464;11.070;2024-01-25T04:59:15;8.90;99.90
4518;DHT22;2271;49.464;11.070;2024-01-25T05:01:41;8.90;99.90
4518;DHT22;2271;49.464;11.070;2024-01-25T05:04:07;8.90;99.90
4518;DHT22;2271;49.464;11.070;2024-01-25T05:06:33;8.90;99.90
4518;DHT22;2271;49.464;11.070;2024-01-25T05:08:59;8.90;99.90
4518;DHT22;2271;49.464;11.070;2024-01-25T05:11:25;8.90;99.90
4518;DHT22;2271;49.464;11.070;2024-01-25T05:13:50;8.90;99.90
4518;DHT22;2271;49.464;11.070;2024-01-25T05:16:16;8.90;99.90
4518;DHT22;2271;49.464;11.070;2024-01-25T05:18:42;8.90;99.90
4518;DHT22;2271;49.464;11.070;2024-01-25T05:21:07;8.90;99.90
4518;DHT22;2271;49.464;11.070;2024-01-25T05:23:33;8.80;99.90
4518;DHT22;2271;49.464;11.070;2024-01-25T05:25:58;8.80;99.90
4518;DHT22;2271;49.464;11.070;2024-01-25T05:28:24;8.70;99.90
4518;DHT22;2271;49.464;11.070;2024-01-25T05:30:50;8.80;99.90
4518;DHT22;2271;49.464;11.070;2024-01-25T05:33:16;8.80;99.90
4518;DHT22;2271;49.464;11.070;2024-01-25T05:35:41;8.80;99.90
4518;DHT22;2271;49.464;11.070;2024-01-25T05:38:07;8.80;99.90
4518;DHT22;2271;49.464;11.070;2024-01-25T05:40:32;8.80;99.90
4518;DHT22;2271;49.464;11.070;2024-01-25T05:42:59;8.80;99.90
4518;DHT22;2271;49.464;11.070;2024-01-25T05:45:25;8.70;99.90
4518;DHT22;2271;49.464;11.070;2024-01-25T05:47:51;8.70;99.90
4518;DHT22;2271;49.464;11.070;2024-01-25T05:50:17;8.80;99.90
4518;DHT22;2271;49.464;11.070;2024-01-25T05:52:43;8.80;99.90
4518;DHT22;2271;49.464;11.070;2024-01-25T05:55:09;8.70;99.90
4518;DHT22;2271;49.464;11.070;2024-01-25T05:57:36;8.70;99.90
4518;DHT22;2271;49.464;11.070;2024-01-25T06:00:03;8.70;99.90
4518;DHT22;2271;49.464;11.070;2024-01-25T06:02:32;8.70;99.90
4518;DHT22;2271;49.464;11.070;2024-01-25T06:04:58;8.80;99.90
4518;DHT22;2271;49.464;11.070;2024-01-25T06:07:25;8.80;99.90
4518;DHT22;2271;49.464;11.070;2024-01-25T06:09:50;8.80;99.90
4518;DHT22;2271;49.464;11.070;2024-01-25T06:12:16;8.80;99.90
4518;DHT22;2271;49.464;11.070;2024-01-25T06:14:42;8.70;99.90
4518;DHT22;2271;49.464;11.070;2024-01-25T06:17:07;8.70;99.90
4518;DHT22;2271;49.464;11.070;2024-01-25T06:19:33;8.70;99.90
4518;DHT22;2271;49.464;11.070;2024-01-25T06:22:00;8.70;99.90
4518;DHT22;2271;49.464;11.070;2024-01-25T06:24:25;8.60;99.90
4518;DHT22;2271;49.464;11.070;2024-01-25T06:26:52;8.60;99.90
4518;DHT22;2271;49.464;11.070;2024-01-25T06:29:17;8.60;99.90
4518;DHT22;2271;49.464;11.070;2024-01-25T06:31:44;8.60;99.90
4518;DHT22;2271;49.464;11.070;2024-01-25T06:34:09;8.60;99.90
4518;DHT22;2271;49.464;11.070;2024-01-25T06:36:35;8.70;99.90
4518;DHT22;2271;49.464;11.070;2024-01-25T06:39:01;8.70;99.90
4518;DHT22;2271;49.464;11.070;2024-01-25T06:41:26;8.70;99.90
4518;DHT22;2271;49.464;11.070;2024-01-25T06:43:52;8.70;99.90
4518;DHT22;2271;49.464;11.070;2024-01-25T06:46:18;8.60;99.90
4518;DHT22;2271;49.464;11.070;2024-01-25T06:48:43;8.60;99.90
4518;DHT22;2271;49.464;11.070;2024-01-25T06:51:09;8.60;99.90
4518;DHT22;2271;49.464;11.070;2024-01-25T06:53:34;8.60;99.90
4518;DHT22;2271;49.464;11.070;2024-01-25T06:56:00;8.60;99.90
4518;DHT22;2271;49.464;11.070;2024-01-25T06:58:26;8.50;99.90
4518;DHT22;2271;49.464;11.070;2024-01-25T07:00:52;8.50;99.90
4518;DHT22;2271;49.464;11.070;2024-01-25T07:03:18;8.40;99.90
4518;DHT22;2271;49.464;11.070;2024-01-25T07:05:44;8.40;99.90
4518;DHT22;2271;49.464;11.070;2024-01-25T07:08:10;8.40;99.90
4518;DHT22;2271;49.464;11.070;2024-01-25T07:10:40;8.40;99.90
4518;DHT22;2271;49.464;11.070;2024-01-25T07:13:05;8.30;99.90
4518;DHT22;2271;49.464;11.070;2024-01-25T07:15:32;8.40;99.90
4518;DHT22;2271;49.464;11.070;2024-01-25T07:17:57;8.40;99.90
4518;DHT22;2271;49.464;11.070;2024-01-25T07:20:23;8.40;99.90
4518;DHT22;2271;49.464;11.070;2024-01-25T07:22:49;8.40;99.90
4518;DHT22;2271;49.464;11.070;2024-01-25T07:25:14;8.30;99.90
4518;DHT22;2271;49.464;11.070;2024-01-25T07:27:44;8.30;99.90
4518;DHT22;2271;49.464;11.070;2024-01-25T07:30:11;8.40;99.90
4518;DHT22;2271;49.464;11.070;2024-01-25T07:32:38;8.40;99.90
4518;DHT22;2271;49.464;11.070;2024-01-25T07:35:04;8.40;99.90
4518;DHT22;2271;49.464;11.070;2024-01-25T07:37:30;8.40;99.90
4518;DHT22;2271;49.464;11.070;2024-01-25T07:39:56;8.40;99.90
4518;DHT22;2271;49.464;11.070;2024-01-25T07:42:21;8.40;99.90
4518;DHT22;2271;49.464;11.070;2024-01-25T07:44:47;8.40;99.90
4518;DHT22;2271;49.464;11.070;2024-01-25T07:47:14;8.40;99.90
4518;DHT22;2271;49.464;11.070;2024-01-25T07:49:40;8.40;99.90
4518;DHT22;2271;49.464;11.070;2024-01-25T07:52:06;8.40;99.90
4518;DHT22;2271;49.464;11.070;2024-01-25T07:54:31;8.40;99.90
4518;DHT22;2271;49.464;11.070;2024-01-25T07:56:57;8.40;99.90
4518;DHT22;2271;49.464;11.070;2024-01-25T07:59:23;8.50;99.90
4518;DHT22;2271;49.464;11.070;2024-01-25T08:01:49;8.50;99.90
4518;DHT22;2271;49.464;11.070;2024-01-25T08:04:14;8.50;99.90
4518;DHT22;2271;49.464;11.070;2024-01-25T08:06:40;8.50;99.90
4518;DHT22;2271;49.464;11.070;2024-01-25T08:09:06;8.50;99.90
4518;DHT22;2271;49.464;11.070;2024-01-25T08:11:31;8.50;99.90
4518;DHT22;2271;49.464;11.070;2024-01-25T08:13:57;8.50;99.90
4518;DHT22;2271;49.464;11.070;2024-01-25T08:16:23;8.60;99.90
4518;DHT22;2271;49.464;11.070;2024-01-25T08:18:49;8.60;99.90
4518;DHT22;2271;49.464;11.070;2024-01-25T08:21:15;8.50;99.90
4518;DHT22;2271;49.464;11.070;2024-01-25T08:23:41;8.50;99.90
4518;DHT22;2271;49.464;11.070;2024-01-25T08:26:07;8.50;99.90
4518;DHT22;2271;49.464;11.070;2024-01-25T08:28:41;8.40;99.90
4518;DHT22;2271;49.464;11.070;2024-01-25T08:31:09;8.50;99.90
4518;DHT22;2271;49.464;11.070;2024-01-25T08:33:35;8.50;99.90
4518;DHT22;2271;49.464;11.070;2024-01-25T08:36:01;8.50;99.90
4518;DHT22;2271;49.464;11.070;2024-01-25T08:38:27;8.50;99.90
4518;DHT22;2271;49.464;11.070;2024-01-25T08:40:53;8.50;99.90
4518;DHT22;2271;49.464;11.070;2024-01-25T08:43:19;8.60;99.90
4518;DHT22;2271;49.464;11.070;2024-01-25T08:45:45;8.60;99.90
4518;DHT22;2271;49.464;11.070;2024-01-25T08:48:11;8.50;99.90
4518;DHT22;2271;49.464;11.070;2024-01-25T08:50:38;8.50;99.90
4518;DHT22;2271;49.464;11.070;2024-01-25T08:53:04;8.50;99.90
4518;DHT22;2271;49.464;11.070;2024-01-25T08:55:30;8.60;99.90
4518;DHT22;2271;49.464;11.070;2024-01-25T08:57:56;8.60;99.90
4518;DHT22;2271;49.464;11.070;2024-01-25T09:00:22;8.60;99.90
4518;DHT22;2271;49.464;11.070;2024-01-25T09:02:48;8.50;99.90
4518;DHT22;2271;49.464;11.070;2024-01-25T09:05:13;8.60;99.90
4518;DHT22;2271;49.464;11.070;2024-01-25T09:07:40;8.50;99.90
4518;DHT22;2271;49.464;11.070;2024-01-25T09:10:06;8.60;99.90
4518;DHT22;2271;49.464;11.070;2024-01-25T09:12:32;8.60;99.90
4518;DHT22;2271;49.464;11.070;2024-01-25T09:14:57;8.70;99.90
4518;DHT22;2271;49.464;11.070;2024-01-25T09:17:23;8.70;99.90
4518;DHT22;2271;49.464;11.070;2024-01-25T09:19:49;8.70;99.90
4518;DHT22;2271;49.464;11.070;2024-01-25T09:22:15;8.80;99.90
4518;DHT22;2271;49.464;11.070;2024-01-25T09:24:43;8.80;99.90
4518;DHT22;2271;49.464;11.070;2024-01-25T09:27:09;8.80;99.90
4518;DHT22;2271;49.464;11.070;2024-01-25T09:29:34;8.80;99.90
4518;DHT22;2271;49.464;11.070;2024-01-25T09:32:00;8.80;99.90
4518;DHT22;2271;49.464;11.070;2024-01-25T09:34:25;8.80;99.90
4518;DHT22;2271;49.464;11.070;2024-01-25T09:36:51;8.80;99.90
4518;DHT22;2271;49.464;11.070;2024-01-25T09:39:17;8.80;99.90
4518;DHT22;2271;49.464;11.070;2024-01-25T09:41:43;8.80;99.90
4518;DHT22;2271;49.464;11.070;2024-01-25T09:44:09;8.80;99.90
4518;DHT22;2271;49.464;11.070;2024-01-25T09:46:37;8.90;99.90
4518;DHT22;2271;49.464;11.070;2024-01-25T09:49:03;8.90;99.90
4518;DHT22;2271;49.464;11.070;2024-01-25T09:51:36;8.90;99.90
4518;DHT22;2271;49.464;11.070;2024-01-25T09:54:04;8.90;99.90
4518;DHT22;2271;49.464;11.070;2024-01-25T09:56:32;8.90;99.90
4518;DHT22;2271;49.464;11.070;2024-01-25T09:58:58;9.00;99.90
4518;DHT22;2271;49.464;11.070;2024-01-25T10:01:24;9.00;99.90
4518;DHT22;2271;49.464;11.070;2024-01-25T10:03:50;9.00;99.90
4518;DHT22;2271;49.464;11.070;2024-01-25T10:06:16;9.00;99.90
4518;DHT22;2271;49.464;11.070;2024-01-25T10:08:43;9.00;99.90
4518;DHT22;2271;49.464;11.070;2024-01-25T10:11:09;9.00;99.90
4518;DHT22;2271;49.464;11.070;2024-01-25T10:13:49;9.00;99.90
4518;DHT22;2271;49.464;11.070;2024-01-25T10:16:19;9.10;99.90
4518;DHT22;2271;49.464;11.070;2024-01-25T10:18:48;9.10;99.90
4518;DHT22;2271;49.464;11.070;2024-01-25T10:21:15;9.20;99.90
4518;DHT22;2271;49.464;11.070;2024-01-25T10:23:43;9.20;99.90
4518;DHT22;2271;49.464;11.070;2024-01-25T10:26:09;9.20;99.90
4518;DHT22;2271;49.464;11.070;2024-01-25T10:28:35;9.20;99.90
4518;DHT22;2271;49.464;11.070;2024-01-25T10:31:02;9.30;99.90
4518;DHT22;2271;49.464;11.070;2024-01-25T10:33:30;9.20;99.90
4518;DHT22;2271;49.464;11.070;2024-01-25T10:35:56;9.20;99.90
4518;DHT22;2271;49.464;11.070;2024-01-25T10:38:30;9.20;99.90
4518;DHT22;2271;49.464;11.070;2024-01-25T10:41:01;9.20;99.90
4518;DHT22;2271;49.464;11.070;2024-01-25T10:43:30;9.30;99.90
4518;DHT22;2271;49.464;11.070;2024-01-25T10:45:56;9.40;99.90
4518;DHT22;2271;49.464;11.070;2024-01-25T10:48:27;9.40;99.90
4518;DHT22;2271;49.464;11.070;2024-01-25T10:50:56;9.40;99.90
4518;DHT22;2271;49.464;11.070;2024-01-25T10:53:24;9.40;99.90
4518;DHT22;2271;49.464;11.070;2024-01-25T10:55:51;9.50;99.90
4518;DHT22;2271;49.464;11.070;2024-01-25T10:58:17;9.50;99.90
4518;DHT22;2271;49.464;11.070;2024-01-25T11:00:55;9.60;99.90
4518;DHT22;2271;49.464;11.070;2024-01-25T11:03:28;9.50;99.90
4518;DHT22;2271;49.464;11.070;2024-01-25T11:06:06;9.50;99.90
4518;DHT22;2271;49.464;11.070;2024-01-25T11:08:33;9.60;99.90
4518;DHT22;2271;49.464;11.070;2024-01-25T11:10:59;9.70;99.90
4518;DHT22;2271;49.464;11.070;2024-01-25T11:13:26;9.70;99.90
4518;DHT22;2271;49.464;11.070;2024-01-25T11:15:52;9.70;99.90
4518;DHT22;2271;49.464;11.070;2024-01-25T11:18:18;9.70;99.90
4518;DHT22;2271;49.464;11.070;2024-01-25T11:20:47;9.80;99.90
4518;DHT22;2271;49.464;11.070;2024-01-25T11:23:15;9.80;99.90
4518;DHT22;2271;49.464;11.070;2024-01-25T11:25:45;9.90;99.90
4518;DHT22;2271;49.464;11.070;2024-01-25T11:28:14;9.80;99.90
4518;DHT22;2271;49.464;11.070;2024-01-25T11:30:41;9.80;99.90
4518;DHT22;2271;49.464;11.070;2024-01-25T11:33:08;9.80;99.90
4518;DHT22;2271;49.464;11.070;2024-01-25T11:35:34;9.80;99.90
4518;DHT22;2271;49.464;11.070;2024-01-25T11:38:00;9.90;99.90
4518;DHT22;2271;49.464;11.070;2024-01-25T11:40:26;9.80;99.90
4518;DHT22;2271;49.464;11.070;2024-01-25T11:42:53;9.70;99.90
4518;DHT22;2271;49.464;11.070;2024-01-25T11:45:19;9.70;99.90
4518;DHT22;2271;49.464;11.070;2024-01-25T11:47:45;9.60;99.90
4518;DHT22;2271;49.464;11.070;2024-01-25T11:50:12;9.50;99.90
4518;DHT22;2271;49.464;11.070;2024-01-25T11:52:38;9.60;99.90
4518;DHT22;2271;49.464;11.070;2024-01-25T11:55:06;9.70;99.90
4518;DHT22;2271;49.464;11.070;2024-01-25T11:57:42;9.70;99.90
4518;DHT22;2271;49.464;11.070;2024-01-25T12:00:09;9.80;99.90
4518;DHT22;2271;49.464;11.070;2024-01-25T12:02:36;9.80;99.90
4518;DHT22;2271;49.464;11.070;2024-01-25T12:05:03;9.80;99.90
4518;DHT22;2271;49.464;11.070;2024-01-25T12:07:32;9.90;99.90
4518;DHT22;2271;49.464;11.070;2024-01-25T12:10:10;9.90;99.90
4518;DHT22;2271;49.464;11.070;2024-01-25T12:12:40;10.00;99.90
4518;DHT22;2271;49.464;11.070;2024-01-25T12:15:06;9.90;99.90
4518;DHT22;2271;49.464;11.070;2024-01-25T12:17:35;9.90;99.90
4518;DHT22;2271;49.464;11.070;2024-01-25T12:20:07;9.90;99.90
4518;DHT22;2271;49.464;11.070;2024-01-25T12:22:39;9.80;99.90
4518;DHT22;2271;49.464;11.070;2024-01-25T12:25:08;9.80;99.90
4518;DHT22;2271;49.464;11.070;2024-01-25T12:27:39;9.70;99.90
4518;DHT22;2271;49.464;11.070;2024-01-25T12:30:06;9.70;99.90
4518;DHT22;2271;49.464;11.070;2024-01-25T12:32:34;9.70;99.90
4518;DHT22;2271;49.464;11.070;2024-01-25T12:35:01;9.80;99.90
4518;DHT22;2271;49.464;11.070;2024-01-25T12:37:27;9.70;99.90
4518;DHT22;2271;49.464;11.070;2024-01-25T12:39:54;9.70;99.90
4518;DHT22;2271;49.464;11.070;2024-01-25T12:42:20;9.70;99.90
4518;DHT22;2271;49.464;11.070;2024-01-25T12:44:46;9.80;99.90
4518;DHT22;2271;49.464;11.070;2024-01-25T12:47:12;9.80;99.90
4518;DHT22;2271;49.464;11.070;2024-01-25T12:49:42;9.80;99.90
4518;DHT22;2271;49.464;11.070;2024-01-25T12:52:12;9.80;99.90
4518;DHT22;2271;49.464;11.070;2024-01-25T12:54:38;9.80;99.90
4518;DHT22;2271;49.464;11.070;2024-01-25T12:57:05;9.80;99.90
4518;DHT22;2271;49.464;11.070;2024-01-25T12:59:34;9.80;99.90
4518;DHT22;2271;49.464;11.070;2024-01-25T13:02:01;9.80;99.90
4518;DHT22;2271;49.464;11.070;2024-01-25T13:04:27;9.70;99.90
4518;DHT22;2271;49.464;11.070;2024-01-25T13:06:54;9.70;99.90
4518;DHT22;2271;49.464;11.070;2024-01-25T13:09:23;9.70;99.90
4518;DHT22;2271;49.464;11.070;2024-01-25T13:11:49;9.80;99.90
4518;DHT22;2271;49.464;11.070;2024-01-25T13:14:15;9.70;99.90
4518;DHT22;2271;49.464;11.070;2024-01-25T13:16:41;9.70;99.90
4518;DHT22;2271;49.464;11.070;2024-01-25T13:19:07;9.70;99.90
4518;DHT22;2271;49.464;11.070;2024-01-25T13:21:33;9.70;99.90
4518;DHT22;2271;49.464;11.070;2024-01-25T13:24:01;9.70;99.90
4518;DHT22;2271;49.464;11.070;2024-01-25T13:26:27;9.70;99.90
4518;DHT22;2271;49.464;11.070;2024-01-25T13:28:53;9.70;99.90
4518;DHT22;2271;49.464;11.070;2024-01-25T13:31:18;9.70;99.90
4518;DHT22;2271;49.464;11.070;2024-01-25T13:33:44;9.70;99.90
4518;DHT22;2271;49.464;11.070;2024-01-25T13:36:11;9.70;99.90
4518;DHT22;2271;49.464;11.070;2024-01-25T13:38:39;9.70;99.90
4518;DHT22;2271;49.464;11.070;2024-01-25T13:41:07;9.70;99.90
4518;DHT22;2271;49.464;11.070;2024-01-25T13:43:33;9.80;99.90
4518;DHT22;2271;49.464;11.070;2024-01-25T13:45:58;9.80;99.90
4518;DHT22;2271;49.464;11.070;2024-01-25T13:48:24;9.80;99.90
4518;DHT22;2271;49.464;11.070;2024-01-25T13:50:50;9.80;99.90
4518;DHT22;2271;49.464;11.070;2024-01-25T13:53:15;9.80;99.90
4518;DHT22;2271;49.464;11.070;2024-01-25T13:55:43;9.80;99.90
4518;DHT22;2271;49.464;11.070;2024-01-25T13:58:08;9.80;99.90
4518;DHT22;2271;49.464;11.070;2024-01-25T14:00:34;9.90;99.90
4518;DHT22;2271;49.464;11.070;2024-01-25T14:03:00;9.80;99.90
4518;DHT22;2271;49.464;11.070;2024-01-25T14:05:25;9.80;99.90
4518;DHT22;2271;49.464;11.070;2024-01-25T14:07:51;9.80;99.90
4518;DHT22;2271;49.464;11.070;2024-01-25T14:10:16;9.70;99.90
4518;DHT22;2271;49.464;11.070;2024-01-25T14:12:42;9.70;99.90
4518;DHT22;2271;49.464;11.070;2024-01-25T14:15:09;9.80;99.90
4518;DHT22;2271;49.464;11.070;2024-01-25T14:17:35;9.80;99.90
4518;DHT22;2271;49.464;11.070;2024-01-25T14:20:02;9.80;99.90
4518;DHT22;2271;49.464;11.070;2024-01-25T14:22:29;9.80;99.90
4518;DHT22;2271;49.464;11.070;2024-01-25T14:24:55;9.80;99.90
4518;DHT22;2271;49.464;11.070;2024-01-25T14:27:21;9.70;99.90
4518;DHT22;2271;49.464;11.070;2024-01-25T14:29:47;9.70;99.90
4518;DHT22;2271;49.464;11.070;2024-01-25T14:32:12;9.70;99.90
4518;DHT22;2271;49.464;11.070;2024-01-25T14:34:38;9.70;99.90
4518;DHT22;2271;49.464;11.070;2024-01-25T14:37:05;9.70;99.90
4518;DHT22;2271;49.464;11.070;2024-01-25T14:39:31;9.70;99.90
4518;DHT22;2271;49.464;11.070;2024-01-25T14:41:57;9.60;99.90
4518;DHT22;2271;49.464;11.070;2024-01-25T14:44:22;9.60;99.90
4518;DHT22;2271;49.464;11.070;2024-01-25T14:46:48;9.60;99.90
4518;DHT22;2271;49.464;11.070;2024-01-25T14:49:13;9.60;99.90
4518;DHT22;2271;49.464;11.070;2024-01-25T14:51:39;9.60;99.90
4518;DHT22;2271;49.464;11.070;2024-01-25T14:54:05;9.50;99.90
4518;DHT22;2271;49.464;11.070;2024-01-25T14:56:30;9.50;99.90
4518;DHT22;2271;49.464;11.070;2024-01-25T14:58:56;9.50;99.90
4518;DHT22;2271;49.464;11.070;2024-01-25T15:01:22;9.50;99.90
4518;DHT22;2271;49.464;11.070;2024-01-25T15:03:53;9.50;99.90
4518;DHT22;2271;49.464;11.070;2024-01-25T15:06:18;9.50;99.90
4518;DHT22;2271;49.464;11.070;2024-01-25T15:08:44;9.50;99.90
4518;DHT22;2271;49.464;11.070;2024-01-25T15:11:10;9.40;99.90
4518;DHT22;2271;49.464;11.070;2024-01-25T15:13:36;9.40;99.90
4518;DHT22;2271;49.464;11.070;2024-01-25T15:16:02;9.40;99.90
4518;DHT22;2271;49.464;11.070;2024-01-25T15:18:27;9.30;99.90
4518;DHT22;2271;49.464;11.070;2024-01-25T15:20:53;9.30;99.90
4518;DHT22;2271;49.464;11.070;2024-01-25T15:23:19;9.30;99.90
4518;DHT22;2271;49.464;11.070;2024-01-25T15:25:44;9.30;99.90
4518;DHT22;2271;49.464;11.070;2024-01-25T15:28:10;9.30;99.90
4518;DHT22;2271;49.464;11.070;2024-01-25T15:30:36;9.30;99.90
4518;DHT22;2271;49.464;11.070;2024-01-25T15:33:01;9.30;99.90
4518;DHT22;2271;49.464;11.070;2024-01-25T15:35:28;9.30;99.90
4518;DHT22;2271;49.464;11.070;2024-01-25T15:37:54;9.20;99.90
4518;DHT22;2271;49.464;11.070;2024-01-25T15:40:19;9.20;99.90
4518;DHT22;2271;49.464;11.070;2024-01-25T15:42:45;9.20;99.90
4518;DHT22;2271;49.464;11.070;2024-01-25T15:45:19;9.10;99.90
4518;DHT22;2271;49.464;11.070;2024-01-25T15:47:46;9.10;99.90
4518;DHT22;2271;49.464;11.070;2024-01-25T15:50:12;9.10;99.90
4518;DHT22;2271;49.464;11.070;2024-01-25T15:52:38;9.10;99.90
4518;DHT22;2271;49.464;11.070;2024-01-25T15:55:04;9.10;99.90
4518;DHT22;2271;49.464;11.070;2024-01-25T15:57:30;9.10;99.90